Terminal Aerodrome Forecast
Issued by NWS

Home | Current Version | Previous Version | Text Only | Print | Product List | Glossary On
Versions: 1 2 3 4 5 6 7 8 9 10 11 12 13 14 15 16 17 18 19 20 21 22 23 24 25 26
000
FTUS46 KSGX 311700
TAFSAN
TAF
KSAN 311729Z 3118/0124 24008KT P6SM BKN035 BKN050
     FM010300 20008KT P6SM VCSH BKN025 BKN045
     FM011100 23012G20KT 6SM -SHRA BR FEW010 BKN015 OVC040
     FM011500 27012KT P6SM VCSH SCT015 BKN029 OVC050
     FM012000 28009KT P6SM SCT030 BKN045=

USA.gov is the U.S. government's official web portal to all federal, state and local government web resources and services.